Time;durP1;ratioP1;P1;durP2;ratioP2;P2;SDS_P1;SDS_P2;PMS_P1;PMS_P2;Temp;Humidity;BMP_temperature;BMP_pressure;BME280_temperature;BME280_humidity;BME280_pressure;Samples;Min_cycle;Max_cycle;Signal;HPM_P1;HPM_P2
2021/12/12 00:01:42;;;;;;;5.90;4.30;;;;;;;1.35;67.18;100133.81;5025683;28;20763;-69
2021/12/12 00:04:15;;;;;;;8.60;4.90;;;;;;;1.31;68.44;100146.31;5026536;28;20228;-70
2021/12/12 00:06:55;;;;;;;9.07;4.70;;;;;;;1.59;67.22;100149.75;5026383;28;20612;-70
2021/12/12 00:09:26;;;;;;;8.20;4.50;;;;;;;1.78;66.65;100149.34;5040655;28;20249;-70
2021/12/12 00:11:58;;;;;;;8.73;5.23;;;;;;;1.55;67.33;100135.16;5030297;28;20232;-70
2021/12/12 00:14:31;;;;;;;11.97;5.03;;;;;;;1.65;66.22;100135.34;5029205;28;20226;-69
2021/12/12 00:16:59;;;;;;;9.27;5.40;;;;;;;1.09;67.98;100130.28;5030311;28;20224;-70
2021/12/12 00:19:28;;;;;;;8.73;4.90;;;;;;;1.62;66.90;100143.44;5025344;28;20225;-71
2021/12/12 00:21:58;;;;;;;9.93;5.50;;;;;;;1.32;66.93;100129.59;5029132;28;20223;-70
2021/12/12 00:24:25;;;;;;;10.30;5.43;;;;;;;1.88;66.24;100134.59;5029874;28;20221;-70
2021/12/12 00:26:54;;;;;;;7.77;5.13;;;;;;;1.87;65.67;100129.44;5028674;28;20233;-70
2021/12/12 00:29:24;;;;;;;10.07;5.37;;;;;;;2.07;64.24;100128.06;5029969;28;20221;-70
2021/12/12 00:31:56;;;;;;;10.47;5.20;;;;;;;1.70;65.36;100120.94;5030586;28;20224;-70
2021/12/12 00:34:23;;;;;;;7.60;5.07;;;;;;;1.00;66.37;100118.59;5025899;28;20226;-70
2021/12/12 00:36:50;;;;;;;7.23;4.80;;;;;;;1.59;66.97;100139.25;5029692;28;20235;-70
2021/12/12 00:39:22;;;;;;;7.77;5.17;;;;;;;1.66;65.64;100143.13;5027421;28;20233;-70
2021/12/12 00:42:11;;;;;;;7.93;5.57;;;;;;;1.69;65.56;100148.19;5028418;28;20582;-71
2021/12/12 00:44:40;;;;;;;11.33;5.50;;;;;;;1.48;66.69;100155.75;5029256;28;20642;-69
2021/12/12 00:47:09;;;;;;;10.60;5.23;;;;;;;1.44;65.80;100142.91;5029762;28;20729;-71
2021/12/12 00:49:39;;;;;;;8.60;5.00;;;;;;;1.31;65.63;100145.47;5028650;28;20291;-70
2021/12/12 00:52:10;;;;;;;8.23;4.53;;;;;;;1.79;64.74;100152.81;5029160;28;20713;-70
2021/12/12 00:54:38;;;;;;;7.10;5.37;;;;;;;1.85;65.37;100158.47;5026153;28;20236;-70
2021/12/12 00:57:08;;;;;;;9.27;5.20;;;;;;;2.10;64.81;100160.25;5024078;28;20228;-70
2021/12/12 00:59:36;;;;;;;9.73;4.57;;;;;;;1.90;64.29;100156.41;5014754;28;20637;-70
2021/12/12 01:02:09;;;;;;;13.47;4.60;;;;;;;2.08;64.52;100162.16;5022485;28;20231;-70
2021/12/12 01:04:41;;;;;;;7.30;4.37;;;;;;;0.94;67.09;100142.63;5028974;28;20260;-69
2021/12/12 01:07:15;;;;;;;8.00;4.60;;;;;;;2.28;64.37;100160.75;5029629;28;20228;-70
2021/12/12 01:09:47;;;;;;;7.07;4.87;;;;;;;1.38;65.71;100136.22;5028603;28;20614;-70
2021/12/12 01:12:19;;;;;;;7.03;4.00;;;;;;;-0.44;73.21;100194.00;5029416;28;20217;-70
2021/12/12 01:14:52;;;;;;;8.93;3.83;;;;;;;-0.52;70.06;100158.63;5026625;28;20220;-70
2021/12/12 01:17:28;;;;;;;6.70;3.87;;;;;;;-0.96;72.43;100169.06;5028792;28;20608;-70
2021/12/12 01:20:15;;;;;;;9.83;3.73;;;;;;;-0.63;72.44;100174.13;5021763;28;20228;-70
2021/12/12 01:22:44;;;;;;;7.87;3.70;;;;;;;-1.49;74.48;100163.25;5028540;28;20223;-70
2021/12/12 01:25:20;;;;;;;6.73;4.00;;;;;;;-1.51;74.77;100159.88;5028572;28;20452;-70
2021/12/12 01:27:48;;;;;;;6.47;3.80;;;;;;;-1.39;74.95;100171.44;5028345;28;20227;-70
2021/12/12 01:30:17;;;;;;;5.90;3.87;;;;;;;-0.62;74.11;100186.31;5029145;28;20753;-70
2021/12/12 01:32:52;;;;;;;6.13;3.77;;;;;;;-0.78;72.99;100159.28;5026855;28;20250;-70
2021/12/12 01:35:20;;;;;;;8.70;3.60;;;;;;;-1.07;73.90;100154.75;5024883;28;20227;-70
2021/12/12 01:40:43;;;;;;;7.40;4.20;;;;;;;-1.65;76.03;100147.53;5028146;28;20237;-69
2021/12/12 01:43:22;;;;;;;9.37;4.10;;;;;;;-1.63;77.04;100159.59;5028636;28;20223;-70
2021/12/12 01:45:56;;;;;;;9.23;4.40;;;;;;;-1.50;77.02;100174.66;5027563;28;20384;-70
2021/12/12 01:48:31;;;;;;;8.37;4.37;;;;;;;-1.12;76.70;100174.28;5028507;28;20220;-70
2021/12/12 01:51:02;;;;;;;7.60;4.60;;;;;;;-1.14;76.19;100174.38;5027564;28;20816;-70
2021/12/12 01:53:32;;;;;;;8.10;5.30;;;;;;;-1.23;75.91;100169.66;5020849;28;20235;-70
2021/12/12 01:56:04;;;;;;;8.17;4.97;;;;;;;-1.19;77.00;100171.16;5022127;28;20227;-70
2021/12/12 01:58:34;;;;;;;7.93;5.20;;;;;;;-1.31;77.76;100174.47;5018980;28;20599;-69
2021/12/12 02:01:10;;;;;;;9.33;5.03;;;;;;;-1.13;77.69;100186.53;5028645;28;20238;-70
2021/12/12 02:03:43;;;;;;;7.53;5.17;;;;;;;-1.40;77.86;100181.06;5027571;28;21807;-70
2021/12/12 02:06:15;;;;;;;8.20;5.73;;;;;;;-1.29;78.01;100188.31;5028198;28;20226;-70
2021/12/12 02:08:43;;;;;;;8.60;5.30;;;;;;;-1.27;78.25;100194.31;5027156;28;20236;-70
2021/12/12 02:11:16;;;;;;;9.67;5.53;;;;;;;0.20;74.87;100171.81;5028000;28;20246;-70
2021/12/12 02:13:48;;;;;;;13.33;6.03;;;;;;;-0.03;72.10;100146.97;5026504;28;20261;-70
2021/12/12 02:16:16;;;;;;;8.97;5.57;;;;;;;-0.16;74.85;100173.09;5028436;28;20225;-70
2021/12/12 02:18:48;;;;;;;6.67;5.27;;;;;;;-0.72;75.51;100179.91;5027640;28;20228;-70
2021/12/12 02:21:27;;;;;;;11.50;5.83;;;;;;;0.45;72.12;100150.13;5026172;28;20615;-70
2021/12/12 02:35:48;;;;;;;9.70;6.00;;;;;;;-0.16;76.96;100175.72;5054290;28;20233;-63
2021/12/12 02:38:31;;;;;;;9.00;6.40;;;;;;;-1.16;78.08;100165.75;5060481;28;20226;-63
2021/12/12 02:41:09;;;;;;;13.20;7.47;;;;;;;-1.24;78.87;100181.88;5066363;28;20224;-63
2021/12/12 02:43:44;;;;;;;9.57;5.83;;;;;;;-0.46;76.61;100173.13;5046194;28;20253;-63
2021/12/12 02:46:14;;;;;;;10.70;6.17;;;;;;;-1.02;78.39;100166.78;5047118;28;20232;-63
2021/12/12 02:48:43;;;;;;;10.77;6.43;;;;;;;-1.00;77.90;100167.53;5028983;28;20920;-63
2021/12/12 02:51:17;;;;;;;9.00;5.63;;;;;;;-1.17;78.44;100161.44;5046567;28;20236;-63
2021/12/12 02:53:53;;;;;;;7.60;5.80;;;;;;;-1.19;78.57;100171.16;5045612;28;20230;-63
2021/12/12 02:56:24;;;;;;;13.03;7.13;;;;;;;-1.07;78.50;100174.88;5037564;28;20227;-63
2021/12/12 02:58:51;;;;;;;11.03;6.70;;;;;;;-1.12;79.29;100171.66;5034910;28;20232;-63
2021/12/12 03:01:41;;;;;;;11.70;7.00;;;;;;;-0.63;78.33;100175.91;5038706;28;20224;-63
2021/12/12 03:04:08;;;;;;;9.23;6.77;;;;;;;-0.55;77.41;100166.66;5047563;28;20219;-63
2021/12/12 03:06:38;;;;;;;11.87;6.70;;;;;;;-1.33;80.27;100176.34;5046678;28;20600;-63
2021/12/12 03:09:20;;;;;;;8.40;6.57;;;;;;;-1.32;79.74;100164.91;5044841;28;20614;-67
2021/12/12 03:11:51;;;;;;;12.17;7.40;;;;;;;-0.95;80.23;100175.97;5045891;28;21465;-63
2021/12/12 03:14:18;;;;;;;8.63;7.47;;;;;;;-0.78;80.47;100183.72;5046674;28;20222;-63
2021/12/12 03:16:47;;;;;;;11.10;7.87;;;;;;;-1.12;80.42;100176.91;5039622;28;20225;-63
2021/12/12 03:19:14;;;;;;;10.33;7.27;;;;;;;-1.56;81.80;100167.13;5045972;28;20521;-63
2021/12/12 03:21:42;;;;;;;14.67;8.23;;;;;;;-1.42;82.46;100180.28;5036605;28;20245;-63
2021/12/12 03:24:16;;;;;;;10.73;7.00;;;;;;;-1.17;82.82;100184.16;5047008;28;20457;-63
2021/12/12 03:26:46;;;;;;;11.53;7.87;;;;;;;-0.31;80.25;100172.25;5037227;28;20750;-63
2021/12/12 03:29:14;;;;;;;14.53;8.90;;;;;;;-0.47;80.64;100171.47;5061933;28;20608;-63
2021/12/12 03:31:48;;;;;;;11.80;7.63;;;;;;;-0.72;79.73;100174.66;5045893;28;20239;-63
2021/12/12 03:34:18;;;;;;;13.83;9.37;;;;;;;-0.77;78.89;100161.00;5045093;28;20222;-63
2021/12/12 03:36:46;;;;;;;13.33;9.27;;;;;;;-0.27;79.88;100161.56;5046387;28;20599;-63
2021/12/12 03:39:18;;;;;;;11.33;7.73;;;;;;;0.03;78.26;100140.50;5044610;28;20239;-63
2021/12/12 03:41:45;;;;;;;13.50;9.07;;;;;;;-1.60;82.89;100159.44;5046331;28;20241;-64
2021/12/12 03:44:18;;;;;;;12.53;8.67;;;;;;;-1.68;84.01;100173.88;5046014;28;20231;-63
2021/12/12 03:46:49;;;;;;;15.63;8.10;;;;;;;-1.78;84.61;100176.97;5041579;28;20400;-63
2021/12/12 03:49:16;;;;;;;11.57;9.00;;;;;;;-1.62;83.87;100179.63;5049937;28;20254;-62
2021/12/12 03:51:44;;;;;;;14.40;8.47;;;;;;;-1.01;82.60;100166.72;5065210;28;20250;-63
2021/12/12 03:54:12;;;;;;;12.47;8.50;;;;;;;-0.97;81.08;100146.41;5049419;28;20221;-63
2021/12/12 03:56:41;;;;;;;14.43;9.90;;;;;;;-0.86;81.43;100152.72;5049508;28;20224;-62
2021/12/12 03:59:09;;;;;;;13.20;8.57;;;;;;;-1.50;83.32;100158.94;5057996;28;20736;-63
2021/12/12 04:01:43;;;;;;;12.80;8.53;;;;;;;-1.53;83.23;100162.56;5045118;28;21638;-63
2021/12/12 04:04:36;;;;;;;13.60;9.07;;;;;;;-0.87;81.53;100166.75;5043044;28;20229;-63
2021/12/12 04:07:08;;;;;;;14.50;9.40;;;;;;;-0.73;78.99;100150.25;5049056;28;20666;-63
2021/12/12 04:09:36;;;;;;;14.30;9.80;;;;;;;-1.01;78.29;100144.91;5027564;28;20252;-63
2021/12/12 04:12:06;;;;;;;12.57;9.03;;;;;;;1.19;74.66;100129.56;5045732;28;20246;-63
2021/12/12 04:14:33;;;;;;;17.90;9.57;;;;;;;1.54;71.63;100118.50;5046508;28;20773;-63
2021/12/12 04:17:05;;;;;;;13.50;10.23;;;;;;;1.61;70.93;100120.72;5042849;28;20597;-63
2021/12/12 04:19:32;;;;;;;11.37;8.63;;;;;;;1.49;71.31;100128.50;5040762;28;20707;-63
2021/12/12 04:22:01;;;;;;;12.10;9.23;;;;;;;0.73;71.33;100118.63;5049833;28;20219;-63
2021/12/12 04:24:33;;;;;;;12.10;9.30;;;;;;;1.29;71.70;100128.97;5049585;28;20222;-63
2021/12/12 04:27:01;;;;;;;11.93;9.70;;;;;;;1.26;71.23;100130.00;5047785;28;20598;-63
2021/12/12 04:29:34;;;;;;;13.50;9.50;;;;;;;1.87;69.65;100134.69;5041133;28;20242;-63
2021/12/12 04:32:25;;;;;;;16.87;10.10;;;;;;;1.79;69.56;100147.56;5049054;28;20224;-63
2021/12/12 04:34:57;;;;;;;12.20;9.50;;;;;;;1.51;70.30;100142.38;5047475;28;20242;-64
2021/12/12 04:37:25;;;;;;;12.33;9.50;;;;;;;0.93;71.02;100141.81;5049125;28;20734;-63
2021/12/12 04:39:56;;;;;;;15.23;9.80;;;;;;;0.92;72.15;100165.53;5044243;28;20223;-64
2021/12/12 04:42:29;;;;;;;15.00;9.90;;;;;;;0.32;72.85;100166.72;5048817;28;20230;-63
2021/12/12 04:45:11;;;;;;;15.90;10.30;;;;;;;1.28;71.11;100166.69;5044169;28;20235;-63
2021/12/12 04:50:47;;;;;;;16.57;10.30;;;;;;;0.28;72.39;100157.34;5046492;28;20240;-63
2021/12/12 04:53:17;;;;;;;14.57;9.50;;;;;;;0.88;71.56;100154.41;5049048;28;20236;-63
2021/12/12 04:55:49;;;;;;;16.43;10.10;;;;;;;0.96;71.24;100153.88;5048208;28;20242;-64
2021/12/12 04:58:23;;;;;;;14.00;9.90;;;;;;;1.30;69.52;100134.13;5041269;28;20216;-65
2021/12/12 05:01:17;;;;;;;12.93;10.97;;;;;;;1.40;70.58;100160.66;5047422;28;20232;-63
2021/12/12 05:03:59;;;;;;;13.93;9.80;;;;;;;1.05;70.10;100145.41;5033422;28;20307;-64
2021/12/12 05:06:58;;;;;;;17.50;10.83;;;;;;;1.62;70.02;100175.84;5048247;28;20246;-63
2021/12/12 05:09:38;;;;;;;15.17;10.07;;;;;;;0.61;72.66;100172.78;5036503;28;20225;-63
2021/12/12 05:12:08;;;;;;;13.17;10.47;;;;;;;1.23;70.50;100163.53;5044680;28;20227;-63
2021/12/12 05:14:45;;;;;;;14.73;10.70;;;;;;;0.42;74.06;100178.31;5047933;28;20607;-63
2021/12/12 05:17:23;;;;;;;12.50;10.43;;;;;;;1.31;71.00;100172.59;5040272;28;20227;-63
2021/12/12 05:19:57;;;;;;;12.90;10.40;;;;;;;0.80;70.88;100173.25;5030272;28;20223;-63
2021/12/12 05:22:44;;;;;;;15.30;10.93;;;;;;;1.23;70.62;100182.78;5044888;28;20237;-63
2021/12/12 05:25:19;;;;;;;15.20;10.93;;;;;;;0.51;72.73;100188.25;5040567;28;20242;-63
2021/12/12 05:27:49;;;;;;;17.20;11.60;;;;;;;1.16;71.14;100190.22;5034017;28;20252;-63
2021/12/12 05:30:21;;;;;;;16.00;11.73;;;;;;;1.10;71.77;100195.88;5040353;28;20230;-63
2021/12/12 05:32:49;;;;;;;14.43;11.10;;;;;;;1.29;70.89;100189.41;5045917;28;20227;-63
2021/12/12 05:35:20;;;;;;;17.67;11.00;;;;;;;1.23;70.06;100181.94;5048029;28;20227;-63
2021/12/12 05:37:54;;;;;;;17.27;11.27;;;;;;;0.92;72.29;100211.03;5062810;28;20227;-63
2021/12/12 05:40:24;;;;;;;21.17;12.50;;;;;;;0.53;73.15;100201.28;5045846;28;20221;-63
2021/12/12 05:42:53;;;;;;;14.43;10.73;;;;;;;1.37;71.06;100203.75;5029075;28;20262;-62
2021/12/12 05:45:20;;;;;;;14.13;10.63;;;;;;;0.20;75.90;100215.53;5046388;28;20225;-63
2021/12/12 05:47:48;;;;;;;16.70;10.83;;;;;;;-0.28;74.49;100197.44;5042948;28;20730;-63
2021/12/12 05:50:16;;;;;;;15.80;11.63;;;;;;;1.34;71.77;100227.59;5043794;28;20225;-62
2021/12/12 05:52:45;;;;;;;14.57;10.50;;;;;;;1.42;69.60;100198.19;5037428;28;20753;-63
2021/12/12 05:55:15;;;;;;;18.70;11.90;;;;;;;1.31;70.30;100211.19;5047024;28;20227;-63
2021/12/12 05:57:45;;;;;;;18.43;11.70;;;;;;;1.22;70.56;100209.16;5048021;28;20240;-63
2021/12/12 06:00:15;;;;;;;16.90;11.73;;;;;;;1.26;71.12;100221.16;5047341;28;20222;-63
2021/12/12 06:02:44;;;;;;;14.50;11.20;;;;;;;1.83;69.02;100222.69;5038982;28;20239;-63
2021/12/12 06:05:11;;;;;;;15.30;11.17;;;;;;;0.86;71.75;100219.31;5048121;28;20222;-63
2021/12/12 06:07:38;;;;;;;18.47;11.20;;;;;;;1.72;69.14;100219.00;5045881;28;20411;-63
2021/12/12 06:10:10;;;;;;;14.23;10.97;;;;;;;0.76;70.85;100203.31;5047412;28;20223;-63
2021/12/12 06:12:37;;;;;;;16.20;10.90;;;;;;;0.58;71.63;100209.72;5045582;28;20231;-63
2021/12/12 06:15:16;;;;;;;14.40;10.33;;;;;;;1.43;70.00;100218.28;5047985;28;20226;-63
2021/12/12 06:17:46;;;;;;;14.23;10.03;;;;;;;0.31;72.74;100214.91;5044005;28;20607;-64
2021/12/12 06:20:14;;;;;;;15.60;10.60;;;;;;;-0.04;75.36;100239.69;5042883;28;20222;-63
2021/12/12 06:22:41;;;;;;;15.03;9.83;;;;;;;0.08;73.56;100230.25;5047080;28;20234;-63
2021/12/12 06:25:10;;;;;;;13.83;10.17;;;;;;;0.79;71.82;100228.50;5047131;28;20442;-63
2021/12/12 06:27:39;;;;;;;14.80;9.97;;;;;;;1.25;70.12;100225.56;5045951;28;20584;-63
2021/12/12 06:30:14;;;;;;;15.77;10.20;;;;;;;1.16;70.19;100223.53;5062533;28;20235;-63
2021/12/12 06:32:42;;;;;;;13.67;9.27;;;;;;;0.07;75.50;100255.66;5046525;28;20244;-62
2021/12/12 06:35:10;;;;;;;14.77;9.27;;;;;;;0.12;74.22;100230.91;5048206;28;20227;-63
2021/12/12 06:37:37;;;;;;;13.17;8.70;;;;;;;-1.27;77.21;100244.03;5042038;28;20241;-63
2021/12/12 06:40:07;;;;;;;11.63;8.97;;;;;;;0.68;73.37;100252.00;5045574;28;20564;-62
2021/12/12 06:42:34;;;;;;;13.40;9.30;;;;;;;0.20;74.88;100257.53;5046156;28;20518;-63
2021/12/12 06:45:02;;;;;;;14.53;9.37;;;;;;;1.72;69.91;100260.25;5046820;28;20231;-63
2021/12/12 06:47:29;;;;;;;14.77;9.93;;;;;;;1.05;70.07;100240.00;5045323;28;20233;-63
2021/12/12 06:49:59;;;;;;;12.57;9.30;;;;;;;1.48;70.19;100257.44;5046808;28;20230;-63
2021/12/12 06:52:26;;;;;;;14.57;9.83;;;;;;;1.65;68.96;100251.03;5045397;28;20229;-63
2021/12/12 06:54:53;;;;;;;13.90;8.40;;;;;;;1.15;70.79;100251.59;5045879;28;20873;-63
2021/12/12 06:57:20;;;;;;;15.17;9.00;;;;;;;0.86;71.12;100245.59;5039122;28;20230;-63
2021/12/12 06:59:50;;;;;;;15.00;9.57;;;;;;;1.10;70.47;100248.44;5046625;28;20221;-63
2021/12/12 07:02:19;;;;;;;10.03;8.43;;;;;;;0.61;72.87;100262.03;5037938;28;20219;-63
2021/12/12 07:04:47;;;;;;;11.50;8.37;;;;;;;0.53;73.80;100274.78;5061659;28;20690;-63
2021/12/12 07:07:16;;;;;;;15.40;8.67;;;;;;;1.00;70.68;100252.59;5046427;28;20611;-63
2021/12/12 07:09:45;;;;;;;11.67;8.20;;;;;;;0.97;70.71;100258.03;5046351;28;20740;-63
2021/12/12 07:12:15;;;;;;;13.27;8.47;;;;;;;0.84;71.27;100257.94;5061663;28;20731;-63
2021/12/12 07:14:43;;;;;;;10.03;7.80;;;;;;;1.16;70.62;100263.81;5046795;28;20219;-63
2021/12/12 07:17:11;;;;;;;14.30;9.40;;;;;;;0.98;71.32;100254.47;5046393;28;20236;-63
2021/12/12 07:19:40;;;;;;;11.77;8.23;;;;;;;0.93;71.84;100264.44;5048360;28;20660;-63
2021/12/12 07:22:08;;;;;;;14.90;7.97;;;;;;;0.33;72.99;100260.25;5051052;28;20236;-63
2021/12/12 07:24:36;;;;;;;12.33;8.00;;;;;;;0.53;71.39;100256.41;5050038;28;20730;-63
2021/12/12 07:27:03;;;;;;;12.00;7.40;;;;;;;1.12;71.11;100262.31;5045988;28;20234;-63
2021/12/12 07:29:30;;;;;;;11.97;8.27;;;;;;;0.92;71.21;100257.50;5050151;28;20231;-63
2021/12/12 07:31:58;;;;;;;11.70;7.43;;;;;;;-0.54;75.36;100262.69;5043865;28;20237;-63
2021/12/12 07:34:25;;;;;;;10.73;6.83;;;;;;;0.77;72.25;100265.38;5050209;28;20229;-63
2021/12/12 07:36:59;;;;;;;12.43;7.30;;;;;;;-0.46;78.18;100298.09;5044832;28;20233;-63
2021/12/12 07:39:29;;;;;;;8.70;6.83;;;;;;;0.02;76.10;100281.31;5047597;28;20225;-63
2021/12/12 07:41:59;;;;;;;11.43;6.90;;;;;;;-0.18;73.73;100263.28;5041099;28;20328;-63
2021/12/12 07:44:29;;;;;;;11.00;7.13;;;;;;;-0.01;75.44;100281.47;5050222;28;20710;-63
2021/12/12 07:46:58;;;;;;;8.73;6.47;;;;;;;-1.20;77.99;100279.41;5041406;28;20227;-63
2021/12/12 07:49:34;;;;;;;10.20;6.47;;;;;;;-0.08;76.22;100287.19;5049827;28;20241;-63
2021/12/12 07:52:03;;;;;;;10.60;5.80;;;;;;;-0.25;76.04;100291.63;5050109;28;20443;-63
2021/12/12 07:54:32;;;;;;;6.90;5.10;;;;;;;-1.20;76.24;100287.25;5041246;28;20226;-62
2021/12/12 07:57:00;;;;;;;8.17;5.73;;;;;;;0.16;75.23;100300.63;5050217;28;20518;-63
2021/12/12 07:59:28;;;;;;;9.07;6.60;;;;;;;-0.38;75.83;100309.00;5049963;28;20219;-62
2021/12/12 08:01:56;;;;;;;8.40;6.10;;;;;;;-0.17;76.57;100314.78;5049792;28;20261;-63
2021/12/12 08:04:28;;;;;;;10.27;6.30;;;;;;;0.19;73.82;100298.66;5049057;28;20226;-63
2021/12/12 08:06:56;;;;;;;7.80;5.57;;;;;;;-0.24;75.09;100305.59;5048449;28;20227;-63
2021/12/12 08:09:24;;;;;;;9.10;6.73;;;;;;;0.24;73.41;100288.75;5048753;28;20227;-63
2021/12/12 08:11:52;;;;;;;5.80;5.20;;;;;;;-0.42;75.91;100300.47;5040049;28;20224;-63
2021/12/12 08:14:23;;;;;;;9.30;6.53;;;;;;;-0.96;75.91;100297.41;5050135;28;20218;-63
2021/12/12 08:16:50;;;;;;;10.00;6.00;;;;;;;-0.43;74.65;100297.94;5049920;28;20231;-63
2021/12/12 08:19:19;;;;;;;9.63;6.17;;;;;;;0.08;75.07;100304.56;5049283;28;20224;-63
2021/12/12 08:21:47;;;;;;;9.37;6.07;;;;;;;-0.86;76.84;100304.66;5049363;28;20227;-63
2021/12/12 08:24:17;;;;;;;6.87;4.80;;;;;;;-1.64;77.86;100293.97;5049414;28;20227;-63
2021/12/12 08:26:45;;;;;;;8.70;5.70;;;;;;;-0.72;77.64;100308.28;5049405;28;20226;-63
2021/12/12 08:29:14;;;;;;;7.57;5.67;;;;;;;-1.33;79.02;100317.69;5049385;28;20233;-64
2021/12/12 08:31:42;;;;;;;6.30;5.20;;;;;;;-0.88;78.26;100324.00;5048315;28;20238;-63
2021/12/12 08:34:11;;;;;;;7.17;5.23;;;;;;;-1.29;79.14;100327.03;5043342;28;20225;-63
2021/12/12 08:36:43;;;;;;;8.93;5.33;;;;;;;-1.53;78.36;100311.72;5030336;28;20261;-63
2021/12/12 08:39:11;;;;;;;9.67;5.47;;;;;;;-0.68;78.61;100333.38;5038987;28;20222;-63
2021/12/12 08:41:41;;;;;;;7.53;4.83;;;;;;;-1.49;78.54;100323.69;5040454;28;20608;-63
2021/12/12 08:44:10;;;;;;;8.20;5.33;;;;;;;-0.71;74.96;100300.34;5049340;28;20220;-63
2021/12/12 08:46:39;;;;;;;6.90;5.20;;;;;;;-0.54;73.66;100282.81;5049631;28;20233;-63
2021/12/12 08:49:08;;;;;;;7.33;5.10;;;;;;;0.10;75.06;100301.00;5048865;28;20241;-63
2021/12/12 08:51:41;;;;;;;7.50;5.17;;;;;;;-0.76;76.30;100309.38;5048999;28;20735;-63
2021/12/12 08:54:15;;;;;;;9.30;5.40;;;;;;;0.72;72.91;100303.38;5048994;28;20739;-63
2021/12/12 08:56:48;;;;;;;8.50;5.70;;;;;;;0.37;71.93;100278.34;5048230;28;20237;-63
2021/12/12 08:59:24;;;;;;;9.77;5.80;;;;;;;0.63;72.47;100287.25;5048722;28;20219;-63
2021/12/12 09:01:55;;;;;;;9.47;6.00;;;;;;;0.81;71.63;100289.69;5047521;28;20223;-64
2021/12/12 09:04:23;;;;;;;9.10;5.97;;;;;;;1.55;69.40;100296.38;5046111;28;20224;-64
2021/12/12 09:07:06;;;;;;;9.87;6.43;;;;;;;1.45;69.53;100284.78;5041325;28;21520;-64
2021/12/12 09:09:40;;;;;;;19.07;9.37;;;;;;;1.42;69.10;100284.94;5039558;28;20231;-64
2021/12/12 09:12:25;;;;;;;13.00;7.43;;;;;;;1.01;71.29;100299.78;5054515;28;20796;-64
2021/12/12 09:15:21;;;;;;;8.90;6.70;;;;;;;1.49;69.97;100296.75;5032815;28;20231;-63
2021/12/12 09:17:56;;;;;;;10.20;6.73;;;;;;;1.73;68.43;100296.09;5047932;28;20628;-64
2021/12/12 09:20:33;;;;;;;14.00;8.50;;;;;;;1.19;70.30;100305.63;5047456;28;20233;-63
2021/12/12 09:23:24;;;;;;;19.57;11.03;;;;;;;1.02;70.68;100308.50;5038775;28;20597;-63
2021/12/12 09:26:06;;;;;;;9.00;7.37;;;;;;;1.88;68.02;100308.22;5047474;28;20558;-64
2021/12/12 09:28:39;;;;;;;9.60;6.50;;;;;;;1.56;69.12;100302.47;5047642;28;20222;-64
2021/12/12 09:31:19;;;;;;;17.57;13.17;;;;;;;1.94;67.81;100301.75;5042878;28;20233;-68
2021/12/12 09:33:45;;;;;;;8.77;7.03;;;;;;;1.69;68.44;100307.78;5043110;28;20625;-67
2021/12/12 09:36:46;;;;;;;6.67;5.53;;;;;;;1.47;68.62;100293.41;5042421;28;20226;-68
2021/12/12 09:39:35;;;;;;;6.50;5.60;;;;;;;1.65;68.43;100309.78;5035146;28;20620;-64
2021/12/12 09:42:20;;;;;;;6.73;5.63;;;;;;;1.86;68.75;100319.81;5047367;28;20235;-63
2021/12/12 09:45:03;;;;;;;7.57;4.53;;;;;;;1.20;70.05;100315.22;5047583;28;20226;-63
2021/12/12 09:48:04;;;;;;;7.60;5.40;;;;;;;1.29;69.67;100300.66;5038258;28;20225;-63
2021/12/12 09:54:01;;;;;;;5.10;4.40;;;;;;;0.51;72.31;100311.63;5047023;28;20691;-64
2021/12/12 09:57:09;;;;;;;5.80;4.67;;;;;;;1.31;70.41;100300.56;5047974;28;20220;-64
2021/12/12 09:59:40;;;;;;;8.37;4.83;;;;;;;1.84;69.01;100301.50;5047026;28;20226;-64
2021/12/12 10:02:25;;;;;;;10.40;4.83;;;;;;;0.87;72.21;100291.09;5047293;28;20233;-64
2021/12/12 10:05:14;;;;;;;9.07;5.73;;;;;;;1.31;69.72;100271.63;5037235;28;20224;-63
2021/12/12 10:08:05;;;;;;;7.87;4.63;;;;;;;0.11;72.52;100285.16;5046557;28;20618;-63
2021/12/12 10:10:35;;;;;;;10.90;5.00;;;;;;;1.61;69.95;100300.38;5046068;28;20233;-64
2021/12/12 10:13:19;;;;;;;7.40;5.17;;;;;;;1.41;70.14;100287.66;5032224;28;20239;-64
2021/12/12 10:15:51;;;;;;;7.83;4.97;;;;;;;1.33;71.15;100290.78;5041334;28;20607;-64
2021/12/12 10:18:32;;;;;;;8.07;5.10;;;;;;;1.49;69.80;100281.00;5046809;28;20227;-63
2021/12/12 10:21:15;;;;;;;8.83;5.37;;;;;;;1.60;69.31;100277.69;5046125;28;20231;-63
2021/12/12 10:24:11;;;;;;;7.13;4.60;;;;;;;0.38;72.63;100298.41;5044724;28;20582;-64
2021/12/12 10:26:45;;;;;;;6.43;5.67;;;;;;;0.94;71.04;100289.75;5045065;28;20789;-63
2021/12/12 10:29:23;;;;;;;8.90;4.97;;;;;;;1.84;68.72;100292.78;5047342;28;20244;-64
2021/12/12 10:32:17;;;;;;;5.13;4.30;;;;;;;0.64;72.13;100283.69;5043506;28;20216;-63
2021/12/12 10:35:15;;;;;;;7.13;4.70;;;;;;;1.10;71.90;100302.78;5043672;28;20235;-63
2021/12/12 10:38:05;;;;;;;7.13;5.23;;;;;;;1.35;70.53;100281.03;5046269;28;20538;-63
2021/12/12 10:40:45;;;;;;;8.10;5.10;;;;;;;0.92;69.88;100260.94;5046576;28;20224;-63
2021/12/12 10:43:22;;;;;;;7.57;5.20;;;;;;;0.78;72.76;100284.63;5046386;28;20241;-64
2021/12/12 10:45:59;;;;;;;7.17;5.33;;;;;;;2.03;68.73;100287.13;5047223;28;20237;-64
2021/12/12 10:48:34;;;;;;;8.17;5.00;;;;;;;1.36;70.72;100285.31;5040664;28;20225;-67
2021/12/12 10:51:15;;;;;;;7.23;5.07;;;;;;;0.71;70.85;100257.91;5037140;28;21554;-65
2021/12/12 10:53:59;;;;;;;9.27;5.23;;;;;;;1.93;68.23;100274.56;5037853;28;20230;-64
2021/12/12 10:56:34;;;;;;;5.50;4.77;;;;;;;0.85;72.10;100285.91;5037117;28;20222;-64
2021/12/12 10:59:34;;;;;;;6.90;5.17;;;;;;;1.59;69.87;100286.50;5045670;28;20596;-65
2021/12/12 11:03:55;;;;;;;7.03;4.97;;;;;;;0.69;71.86;100286.03;5072290;27;20577;-64
2021/12/12 11:06:41;;;;;;;6.37;5.53;;;;;;;0.11;73.64;100295.66;5041965;28;20231;-65
2021/12/12 11:09:30;;;;;;;15.53;8.97;;;;;;;1.25;70.39;100282.56;5059078;28;20253;-64
2021/12/12 11:12:03;;;;;;;12.47;7.27;;;;;;;1.18;70.41;100276.84;5034329;28;20230;-64
2021/12/12 11:14:36;;;;;;;6.03;5.07;;;;;;;0.31;72.25;100285.75;5042437;28;20220;-64
2021/12/12 11:17:11;;;;;;;7.23;5.53;;;;;;;0.69;71.50;100274.69;5029345;28;20615;-65
2021/12/12 11:19:51;;;;;;;8.97;5.27;;;;;;;1.40;70.77;100289.47;5042848;28;21586;-65
2021/12/12 11:22:42;;;;;;;7.97;5.60;;;;;;;0.95;69.67;100255.50;5042392;28;20218;-64
2021/12/12 11:25:18;;;;;;;8.27;5.20;;;;;;;0.91;69.99;100264.53;5030682;28;20474;-65
2021/12/12 11:27:57;;;;;;;9.90;5.27;;;;;;;0.93;71.43;100272.31;5043379;28;20560;-65
2021/12/12 11:30:38;;;;;;;8.67;6.10;;;;;;;1.47;70.07;100268.91;5044154;28;20219;-65
2021/12/12 11:33:09;;;;;;;7.53;5.77;;;;;;;1.50;68.99;100242.38;5037680;28;20615;-65
2021/12/12 11:35:39;;;;;;;10.27;6.03;;;;;;;0.84;72.59;100263.22;5039026;28;20242;-65
2021/12/12 11:38:45;;;;;;;9.47;5.60;;;;;;;1.51;70.93;100259.84;5043681;28;20216;-64
2021/12/12 11:41:25;;;;;;;11.60;6.10;;;;;;;1.10;70.11;100237.91;5031494;28;20603;-64
2021/12/12 11:43:55;;;;;;;7.60;5.80;;;;;;;1.93;69.19;100256.16;5042744;28;20231;-65
2021/12/12 11:47:03;;;;;;;8.53;5.67;;;;;;;0.86;71.62;100240.34;5043219;28;20220;-65
2021/12/12 11:49:43;;;;;;;7.93;5.03;;;;;;;0.79;72.77;100253.00;5036916;28;20226;-65
2021/12/12 11:52:19;;;;;;;5.30;4.80;;;;;;;1.25;70.87;100249.22;5038204;28;20220;-64
2021/12/12 11:55:07;;;;;;;7.10;5.63;;;;;;;1.79;68.90;100242.25;5036628;28;20239;-64
2021/12/12 11:57:46;;;;;;;7.37;4.97;;;;;;;2.10;68.66;100246.28;5042282;28;20261;-64
2021/12/12 12:00:20;;;;;;;6.47;5.10;;;;;;;0.73;71.87;100250.75;5043153;28;20737;-65
2021/12/12 12:03:06;;;;;;;7.07;5.20;;;;;;;1.92;70.22;100253.63;5042103;28;20231;-65
2021/12/12 12:06:11;;;;;;;8.17;5.07;;;;;;;1.88;69.73;100236.38;5041615;28;20242;-65
2021/12/12 12:09:08;;;;;;;7.10;5.40;;;;;;;2.28;68.29;100231.84;5042061;28;20235;-65
2021/12/12 12:11:54;;;;;;;7.67;4.90;;;;;;;2.19;67.62;100226.38;5037741;28;20232;-64
2021/12/12 12:14:30;;;;;;;7.13;5.63;;;;;;;1.90;67.48;100222.19;5033476;28;20223;-65
2021/12/12 12:17:14;;;;;;;7.30;6.07;;;;;;;2.77;66.91;100231.97;5021848;28;21628;-65
2021/12/12 12:19:59;;;;;;;8.90;6.33;;;;;;;2.28;68.51;100234.47;5029276;28;20480;-65
2021/12/12 12:22:31;;;;;;;7.20;5.80;;;;;;;2.46;67.41;100221.81;5027958;28;20251;-65